createdAt,value
2023-04-01T00:01:14.863Z,5.35
2023-04-01T00:03:42.105Z,5.72
2023-04-01T00:06:11.110Z,4.95
2023-04-01T00:08:37.787Z,4.03
2023-04-01T00:11:04.343Z,5.82
2023-04-01T00:13:30.857Z,4.45
2023-04-01T00:15:57.734Z,5.15
2023-04-01T00:18:26.603Z,4.22
2023-04-01T00:20:53.835Z,5.65
2023-04-01T00:23:21.637Z,5.15
2023-04-01T00:25:50.566Z,4.63
2023-04-01T00:28:18.991Z,4.65
2023-04-01T00:30:45.656Z,6.47
2023-04-01T00:33:12.366Z,5.13
2023-04-01T00:35:39.498Z,4.95
2023-04-01T00:38:07.183Z,4.05
2023-04-01T00:40:37.487Z,5.28
2023-04-01T00:43:10.348Z,4.70
2023-04-01T00:45:42.972Z,5.18
2023-04-01T00:48:19.379Z,6.07
2023-04-01T00:50:51.833Z,3.92
2023-04-01T00:53:21.252Z,4.55
2023-04-01T00:55:55.265Z,4.25
2023-04-01T00:58:24.449Z,5.55
2023-04-01T01:00:52.432Z,4.55
2023-04-01T01:03:19.213Z,4.72
2023-04-01T01:06:04.311Z,5.75
2023-04-01T01:08:38.634Z,5.10
2023-04-01T01:11:09.705Z,4.13
2023-04-01T01:14:25.915Z,5.82
2023-04-01T01:17:27.157Z,4.65
2023-04-01T01:20:26.177Z,4.60
2023-04-01T01:23:22.140Z,4.32
2023-04-01T01:26:11.128Z,5.18
2023-04-01T01:28:46.824Z,5.60
2023-04-01T01:31:22.252Z,4.55
2023-04-01T01:33:48.879Z,5.70
2023-04-01T01:36:18.058Z,4.70
2023-04-01T01:38:46.216Z,5.88
2023-04-01T01:41:15.315Z,3.70
2023-04-01T01:43:45.138Z,5.65
2023-04-01T01:46:20.356Z,4.93
2023-04-01T01:48:48.548Z,4.40
2023-04-01T01:51:15.898Z,5.78
2023-04-01T01:53:42.438Z,5.68
2023-04-01T01:56:11.166Z,4.75
2023-04-01T01:58:46.155Z,3.83
2023-04-01T02:01:27.365Z,5.13
2023-04-01T02:03:55.555Z,4.43
2023-04-01T02:06:30.071Z,5.30
2023-04-01T02:11:37.539Z,3.30
2023-04-01T02:14:21.168Z,5.38
2023-04-01T02:17:12.080Z,5.05
2023-04-01T02:19:53.155Z,4.45
2023-04-01T02:22:24.940Z,4.32
2023-04-01T02:24:54.806Z,4.75
2023-04-01T02:27:22.118Z,4.57
2023-04-01T02:29:48.801Z,5.80
2023-04-01T02:32:15.842Z,4.50
2023-04-01T02:34:43.404Z,5.13
2023-04-01T02:37:11.481Z,4.28
2023-04-01T02:39:38.385Z,4.57
2023-04-01T02:42:05.549Z,4.60
2023-04-01T02:44:32.623Z,4.32
2023-04-01T02:46:59.262Z,5.15
2023-04-01T02:49:25.871Z,5.22
2023-04-01T02:51:52.938Z,6.30
2023-04-01T02:54:20.496Z,4.78
2023-04-01T02:56:47.165Z,4.30
2023-04-01T02:59:13.847Z,5.38
2023-04-01T03:01:40.735Z,5.20
2023-04-01T03:04:07.509Z,4.57
2023-04-01T03:06:34.639Z,4.07
2023-04-01T03:09:01.188Z,4.47
2023-04-01T03:11:27.902Z,4.70
2023-04-01T03:13:54.511Z,3.80
2023-04-01T03:16:21.156Z,4.18
2023-04-01T03:18:47.759Z,4.82
2023-04-01T03:21:20.394Z,5.20
2023-04-01T03:23:46.983Z,4.10
2023-04-01T03:26:14.359Z,3.67
2023-04-01T03:28:41.356Z,4.80
2023-04-01T03:31:08.165Z,4.00
2023-04-01T03:33:34.808Z,4.00
2023-04-01T03:36:01.564Z,5.15
2023-04-01T03:38:28.177Z,3.90
2023-04-01T03:40:54.900Z,4.82
2023-04-01T03:43:21.513Z,4.38
2023-04-01T03:45:49.913Z,4.55
2023-04-01T03:48:16.871Z,6.15
2023-04-01T03:50:43.952Z,5.93
2023-04-01T03:53:11.177Z,5.65
2023-04-01T03:55:38.552Z,4.82
2023-04-01T03:58:06.621Z,5.90
2023-04-01T04:00:33.450Z,5.95
2023-04-01T04:03:00.485Z,5.25
2023-04-01T04:05:28.114Z,4.90
2023-04-01T04:07:55.460Z,4.85
2023-04-01T04:10:23.987Z,5.13
2023-04-01T04:12:51.001Z,3.80
2023-04-01T04:15:17.813Z,4.68
2023-04-01T04:17:46.339Z,5.38
2023-04-01T04:20:13.830Z,4.45
2023-04-01T04:22:40.609Z,4.85
2023-04-01T04:25:08.076Z,3.72
2023-04-01T04:27:34.803Z,5.13
2023-04-01T04:30:01.384Z,5.07
2023-04-01T04:32:29.472Z,5.03
2023-04-01T04:34:56.629Z,5.07
2023-04-01T04:37:23.198Z,4.57
2023-04-01T04:39:49.782Z,4.90
2023-04-01T04:42:16.378Z,5.28
2023-04-01T04:44:42.912Z,4.82
2023-04-01T04:47:09.533Z,4.97
2023-04-01T04:49:36.143Z,3.28
2023-04-01T04:52:02.716Z,5.13
2023-04-01T04:54:30.504Z,4.57
2023-04-01T04:56:57.085Z,4.10
2023-04-01T04:59:23.764Z,4.93
2023-04-01T05:01:50.606Z,5.60
2023-04-01T05:04:17.269Z,4.47
2023-04-01T05:06:46.333Z,3.50
2023-04-01T05:09:13.020Z,5.50
2023-04-01T05:11:39.537Z,4.20
2023-04-01T05:14:06.146Z,4.28
2023-04-01T05:16:32.846Z,4.25
2023-04-01T05:18:59.398Z,4.93
2023-04-01T05:21:26.485Z,5.93
2023-04-01T05:23:53.070Z,3.97
2023-04-01T05:26:19.592Z,4.28
2023-04-01T05:28:46.572Z,4.97
2023-04-01T05:31:13.250Z,5.20
2023-04-01T05:33:40.411Z,5.28
2023-04-01T05:36:15.519Z,5.40
2023-04-01T05:38:43.422Z,4.88
2023-04-01T05:41:10.337Z,4.30
2023-04-01T05:43:37.835Z,5.25
2023-04-01T05:46:04.440Z,6.70
2023-04-01T05:48:31.101Z,4.50
2023-04-01T05:50:57.891Z,4.57
2023-04-01T05:53:24.531Z,5.63
2023-04-01T05:55:51.117Z,5.05
2023-04-01T05:58:18.049Z,3.95
2023-04-01T06:00:45.612Z,6.85
2023-04-01T06:03:13.266Z,3.70
2023-04-01T06:05:42.186Z,4.65
2023-04-01T06:08:19.625Z,4.13
2023-04-01T06:11:00.749Z,5.65
2023-04-01T06:13:56.065Z,4.38
2023-04-01T06:19:20.064Z,5.60
2023-04-01T06:21:49.700Z,4.38
2023-04-01T06:24:37.512Z,4.07
2023-04-01T06:27:13.162Z,4.10
2023-04-01T06:29:53.800Z,5.07
2023-04-01T06:32:31.512Z,5.00
2023-04-01T06:35:46.611Z,5.53
2023-04-01T06:38:29.698Z,4.40
2023-04-01T06:40:59.223Z,3.97
2023-04-01T06:43:50.044Z,4.18
2023-04-01T06:46:29.842Z,4.90
2023-04-01T06:49:07.644Z,5.10
2023-04-01T06:51:36.994Z,4.60
2023-04-01T06:54:26.142Z,3.97
2023-04-01T06:57:01.380Z,5.30
2023-04-01T06:59:35.606Z,4.90
2023-04-01T07:02:13.174Z,5.10
2023-04-01T07:04:48.064Z,3.55
2023-04-01T07:07:28.308Z,3.97
2023-04-01T07:10:02.388Z,3.75
2023-04-01T07:12:46.749Z,4.05
2023-04-01T07:15:20.408Z,4.97
2023-04-01T07:17:53.721Z,4.37
2023-04-01T07:20:32.781Z,4.72
2023-04-01T07:23:03.313Z,3.92
2023-04-01T07:25:44.621Z,3.83
2023-04-01T07:28:17.700Z,5.05
2023-04-01T07:31:10.763Z,6.60
2023-04-01T07:34:01.605Z,4.45
2023-04-01T07:36:40.010Z,4.32
2023-04-01T07:39:13.426Z,4.00
2023-04-01T07:42:02.840Z,5.85
2023-04-01T07:45:01.880Z,3.40
2023-04-01T07:47:46.898Z,3.33
2023-04-01T07:50:25.019Z,4.45
2023-04-01T07:53:14.552Z,3.28
2023-04-01T07:55:51.739Z,3.85
2023-04-01T07:58:18.616Z,4.18
2023-04-01T08:01:02.924Z,3.95
2023-04-01T08:04:23.294Z,3.67
2023-04-01T08:06:59.976Z,2.42
2023-04-01T08:09:30.410Z,5.28
2023-04-01T08:12:38.275Z,4.65
2023-04-01T08:15:14.118Z,4.15
2023-04-01T08:18:34.668Z,4.30
2023-04-01T08:21:05.381Z,4.70
2023-04-01T08:23:39.601Z,3.78
2023-04-01T08:26:14.143Z,3.83
2023-04-01T08:31:24.055Z,5.38
2023-04-01T08:33:55.208Z,3.42
2023-04-01T08:36:33.892Z,3.92
2023-04-01T08:39:40.682Z,4.45
2023-04-01T08:42:41.458Z,4.45
2023-04-01T08:45:46.505Z,3.72
2023-04-01T08:48:43.052Z,4.10
2023-04-01T08:51:21.457Z,3.50
2023-04-01T08:54:06.366Z,3.30
2023-04-01T08:57:05.064Z,4.68
2023-04-01T08:59:59.527Z,3.00
2023-04-01T09:03:07.819Z,2.97
2023-04-01T09:05:48.833Z,2.53
2023-04-01T09:08:44.614Z,3.00
2023-04-01T09:11:29.104Z,3.00
2023-04-01T09:14:04.963Z,2.35
2023-04-01T09:17:07.037Z,2.35
2023-04-01T09:19:33.608Z,2.28
2023-04-01T09:22:10.887Z,2.38
2023-04-01T09:24:57.588Z,2.40
2023-04-01T09:27:32.018Z,1.73
2023-04-01T09:33:21.658Z,1.90
2023-04-01T09:36:20.899Z,1.58
2023-04-01T09:38:59.700Z,1.23
2023-04-01T09:41:33.359Z,1.02
2023-04-01T09:44:02.716Z,1.15
2023-04-01T09:47:08.201Z,1.40
2023-04-01T09:52:26.266Z,1.75
2023-04-01T09:55:11.662Z,1.30
2023-04-01T09:58:06.429Z,2.08
2023-04-01T10:01:07.346Z,1.55
2023-04-01T10:04:01.550Z,1.52
2023-04-01T10:06:55.707Z,1.75
2023-04-01T10:09:46.775Z,1.73
2023-04-01T10:12:40.730Z,1.58
2023-04-01T10:15:10.121Z,1.70
2023-04-01T10:17:42.813Z,1.38
2023-04-01T10:20:23.542Z,2.42
2023-04-01T10:23:14.315Z,1.42
2023-04-01T10:25:52.830Z,1.70
2023-04-01T10:28:35.689Z,1.30
2023-04-01T10:31:23.411Z,1.77
2023-04-01T10:34:08.586Z,1.92
2023-04-01T10:36:41.248Z,1.98
2023-04-01T10:39:31.099Z,1.88
2023-04-01T10:42:15.929Z,1.95
2023-04-01T10:45:19.351Z,2.28
2023-04-01T10:48:05.225Z,1.70
2023-04-01T10:51:02.625Z,2.70
2023-04-01T10:54:02.541Z,2.85
2023-04-01T10:56:40.732Z,2.08
2023-04-01T10:59:29.149Z,2.55
2023-04-01T11:02:10.045Z,2.40
2023-04-01T11:05:29.540Z,2.20
2023-04-01T11:08:22.166Z,1.55
2023-04-01T11:10:58.826Z,2.20
2023-04-01T11:13:37.594Z,2.08
2023-04-01T11:16:35.823Z,1.50
2023-04-01T11:19:31.542Z,2.38
2023-04-01T11:22:13.512Z,2.58
2023-04-01T11:25:31.358Z,2.25
2023-04-01T11:28:18.817Z,2.22
2023-04-01T11:31:01.415Z,2.55
2023-04-01T11:33:53.994Z,2.33
2023-04-01T11:36:36.938Z,1.17
2023-04-01T11:39:25.156Z,1.85
2023-04-01T11:42:42.573Z,2.88
2023-04-01T11:45:09.721Z,2.28
2023-04-01T11:48:01.171Z,1.40
2023-04-01T11:50:50.665Z,2.47
2023-04-01T11:53:32.856Z,1.70
2023-04-01T11:56:14.397Z,1.35
2023-04-01T11:58:52.719Z,1.52
2023-04-01T12:01:25.403Z,1.58
2023-04-01T12:04:01.522Z,1.10
2023-04-01T12:06:37.080Z,0.77
2023-04-01T12:09:24.234Z,1.52
2023-04-01T12:12:17.362Z,1.70
2023-04-01T12:15:17.422Z,0.93
2023-04-01T12:18:07.019Z,0.90
2023-04-01T12:20:39.644Z,1.30
2023-04-01T12:23:34.897Z,1.00
2023-04-01T12:26:07.561Z,1.13
2023-04-01T12:29:11.232Z,1.33
2023-04-01T12:31:57.254Z,1.67
2023-04-01T12:34:40.067Z,1.70
2023-04-01T12:37:29.531Z,2.08
2023-04-01T12:40:43.744Z,1.13
2023-04-01T12:43:48.610Z,0.80
2023-04-01T12:46:36.543Z,1.00
2023-04-01T12:49:34.535Z,1.13
2023-04-01T12:52:15.896Z,1.10
2023-04-01T12:55:01.834Z,1.20
2023-04-01T12:58:13.657Z,1.30
2023-04-01T13:00:46.328Z,1.25
2023-04-01T13:03:33.115Z,0.90
2023-04-01T13:06:21.458Z,0.63
2023-04-01T13:09:09.837Z,1.63
2023-04-01T13:11:57.179Z,0.70
2023-04-01T13:14:31.806Z,0.93
2023-04-01T13:17:26.350Z,0.60
2023-04-01T13:20:06.529Z,0.70
2023-04-01T13:22:57.010Z,0.80
2023-04-01T13:25:41.873Z,0.73
2023-04-01T13:29:01.043Z,1.05
2023-04-01T13:31:59.240Z,0.75
2023-04-01T13:34:48.938Z,0.70
2023-04-01T13:37:29.430Z,1.35
2023-04-01T13:40:20.897Z,1.00
2023-04-01T13:42:59.561Z,0.93
2023-04-01T13:45:39.422Z,1.33
2023-04-01T13:48:27.441Z,1.00
2023-04-01T13:51:18.366Z,0.90
2023-04-01T13:53:47.888Z,1.00
2023-04-01T13:56:41.646Z,0.95
2023-04-01T13:59:29.245Z,0.80
2023-04-01T14:02:33.573Z,0.63
2023-04-01T14:05:44.930Z,1.05
2023-04-01T14:08:36.489Z,1.70
2023-04-01T14:11:34.354Z,1.10
2023-04-01T14:14:20.495Z,1.30
2023-04-01T14:17:02.646Z,1.30
2023-04-01T14:19:34.935Z,1.15
2023-04-01T14:22:34.733Z,0.93
2023-04-01T14:25:26.349Z,2.08
2023-04-01T14:27:55.623Z,1.17
2023-04-01T14:30:44.043Z,0.90
2023-04-01T14:33:49.196Z,1.60
2023-04-01T14:36:42.603Z,0.80
2023-04-01T14:39:27.639Z,0.85
2023-04-01T14:42:22.256Z,1.50
2023-04-01T14:45:22.679Z,1.67
2023-04-01T14:48:17.404Z,1.70
2023-04-01T14:50:51.922Z,1.30
2023-04-01T14:53:27.913Z,1.02
2023-04-01T14:55:56.381Z,0.95
2023-04-01T14:58:28.132Z,1.05
2023-04-01T15:01:07.075Z,1.85
2023-04-01T15:03:49.515Z,1.17
2023-04-01T15:06:53.787Z,1.13
2023-04-01T15:09:36.198Z,0.90
2023-04-01T15:12:17.611Z,0.57
2023-04-01T15:15:16.208Z,1.40
2023-04-01T15:18:15.227Z,0.70
2023-04-01T15:21:06.353Z,0.90
2023-04-01T15:23:42.236Z,0.80
2023-04-01T15:26:26.992Z,0.88
2023-04-01T15:29:02.458Z,0.82
2023-04-01T15:32:01.624Z,0.80
2023-04-01T15:34:28.550Z,1.20
2023-04-01T15:37:21.160Z,0.70
2023-04-01T15:40:12.566Z,0.73
2023-04-01T15:43:12.936Z,1.20
2023-04-01T15:46:17.902Z,1.45
2023-04-01T15:49:13.463Z,0.90
2023-04-01T15:51:57.480Z,0.73
2023-04-01T15:54:52.702Z,1.13
2023-04-01T15:57:40.599Z,1.35
2023-04-01T16:00:17.072Z,1.00
2023-04-01T16:03:09.964Z,0.68
2023-04-01T16:05:53.347Z,0.70
2023-04-01T16:08:44.168Z,0.90
2023-04-01T16:11:23.088Z,0.80
2023-04-01T16:14:11.526Z,0.50
2023-04-01T16:17:03.075Z,1.02
2023-04-01T16:19:42.208Z,1.00
2023-04-01T16:22:11.949Z,0.85
2023-04-01T16:24:52.123Z,1.02
2023-04-01T16:27:57.374Z,1.02
2023-04-01T16:30:34.617Z,1.60
2023-04-01T16:33:16.501Z,0.88
2023-04-01T16:35:43.179Z,0.85
2023-04-01T16:38:22.360Z,0.90
2023-04-01T16:41:04.595Z,0.85
2023-04-01T16:43:53.144Z,1.20
2023-04-01T16:46:29.720Z,0.98
2023-04-01T16:49:01.797Z,0.90
2023-04-01T16:52:05.418Z,1.38
2023-04-01T16:54:36.975Z,0.68
2023-04-01T16:57:10.482Z,1.33
2023-04-01T16:59:46.055Z,1.00
2023-04-01T17:02:15.595Z,0.80
2023-04-01T17:04:49.552Z,1.20
2023-04-01T17:07:40.920Z,0.68
2023-04-01T17:10:25.439Z,1.35
2023-04-01T17:13:23.486Z,1.00
2023-04-01T17:16:21.184Z,1.52
2023-04-01T17:19:12.624Z,1.25
2023-04-01T17:22:02.407Z,1.50
2023-04-01T17:24:34.681Z,1.90
2023-04-01T17:27:26.504Z,1.17
2023-04-01T17:30:19.245Z,1.40
2023-04-01T17:33:09.709Z,1.42
2023-04-01T17:35:58.396Z,1.30
2023-04-01T17:38:56.285Z,1.30
2023-04-01T17:41:36.690Z,1.80
2023-04-01T17:44:21.637Z,1.48
2023-04-01T17:49:55.444Z,0.90
2023-04-01T17:52:43.215Z,1.50
2023-04-01T17:55:42.141Z,1.20
2023-04-01T17:58:17.879Z,1.10
2023-04-01T18:01:06.104Z,0.73
2023-04-01T18:04:00.047Z,0.70
2023-04-01T18:06:54.354Z,1.50
2023-04-01T18:09:49.203Z,1.55
2023-04-01T18:12:32.884Z,1.13
2023-04-01T18:15:04.082Z,1.20
2023-04-01T18:17:39.416Z,2.15
2023-04-01T18:20:30.349Z,1.40
2023-04-01T18:23:07.279Z,1.42
2023-04-01T18:25:39.180Z,1.80
2023-04-01T18:28:50.935Z,1.98
2023-04-01T18:31:21.457Z,1.60
2023-04-01T18:33:59.461Z,2.42
2023-04-01T18:36:26.174Z,2.08
2023-04-01T18:39:08.573Z,2.85
2023-04-01T18:42:04.050Z,1.95
2023-04-01T18:44:30.576Z,1.58
2023-04-01T18:47:15.146Z,1.88
2023-04-01T18:49:56.530Z,1.65
2023-04-01T18:52:29.878Z,1.90
2023-04-01T18:55:05.799Z,1.85
2023-04-01T18:57:50.541Z,1.80
2023-04-01T19:00:34.403Z,1.42
2023-04-01T19:03:21.853Z,1.60
2023-04-01T19:05:52.706Z,1.98
2023-04-01T19:08:27.775Z,1.90
2023-04-01T19:11:35.375Z,1.98
2023-04-01T19:14:07.931Z,1.55
2023-04-01T19:17:05.205Z,1.30
2023-04-01T19:20:01.233Z,1.10
2023-04-01T19:22:46.497Z,1.83
2023-04-01T19:25:34.600Z,1.95
2023-04-01T19:28:27.102Z,2.10
2023-04-01T19:31:18.290Z,1.63
2023-04-01T19:33:54.018Z,1.63
2023-04-01T19:36:28.949Z,1.60
2023-04-01T19:39:24.074Z,2.47
2023-04-01T19:42:26.161Z,1.77
2023-04-01T19:44:55.598Z,1.80
2023-04-01T19:47:43.761Z,2.05
2023-04-01T19:50:36.642Z,2.70
2023-04-01T19:53:45.001Z,1.65
2023-04-01T19:56:22.692Z,1.85
2023-04-01T19:58:55.082Z,2.13
2023-04-01T20:01:43.683Z,2.38
2023-04-01T20:04:42.191Z,2.55
2023-04-01T20:07:17.278Z,1.58
2023-04-01T20:09:54.865Z,1.75
2023-04-01T20:12:43.589Z,2.38
2023-04-01T20:15:37.060Z,2.03
2023-04-01T20:18:13.501Z,2.50
2023-04-01T20:20:41.078Z,1.67
2023-04-01T20:23:51.205Z,1.88
2023-04-01T20:26:24.186Z,2.00
2023-04-01T20:29:07.165Z,2.88
2023-04-01T20:31:46.444Z,1.92
2023-04-01T20:34:27.853Z,1.20
2023-04-01T20:37:09.865Z,2.03
2023-04-01T20:40:11.629Z,1.80
2023-04-01T20:42:56.409Z,1.10
2023-04-01T20:45:22.958Z,1.85
2023-04-01T20:48:04.533Z,1.05
2023-04-01T20:50:43.607Z,0.90
2023-04-01T20:53:21.244Z,1.77
2023-04-01T20:55:47.754Z,1.77
2023-04-01T20:58:30.642Z,1.55
2023-04-01T21:01:06.383Z,1.65
2023-04-01T21:03:56.197Z,1.38
2023-04-01T21:06:35.146Z,1.25
2023-04-01T21:09:04.683Z,1.35
2023-04-01T21:11:34.570Z,1.08
2023-04-01T21:14:26.003Z,1.05
2023-04-01T21:17:04.638Z,1.73
2023-04-01T21:19:54.499Z,1.00
2023-04-01T21:22:58.111Z,1.35
2023-04-01T21:25:52.185Z,2.38
2023-04-01T21:28:43.007Z,1.67
2023-04-01T21:31:36.964Z,1.40
2023-04-01T21:34:31.382Z,1.42
2023-04-01T21:37:27.115Z,2.25
2023-04-01T21:40:11.854Z,1.15
2023-04-01T21:42:41.378Z,2.05
2023-04-01T21:45:17.285Z,2.17
2023-04-01T21:48:10.069Z,1.17
2023-04-01T21:50:36.538Z,2.15
2023-04-01T21:53:50.809Z,1.40
2023-04-01T21:56:26.798Z,1.70
2023-04-01T21:59:15.420Z,2.08
2023-04-01T22:01:41.945Z,1.92
2023-04-01T22:04:12.021Z,1.58
2023-04-01T22:07:01.715Z,1.52
2023-04-01T22:09:40.758Z,1.60
2023-04-01T22:12:19.215Z,2.13
2023-04-01T22:14:57.749Z,1.55
2023-04-01T22:17:52.948Z,1.40
2023-04-01T22:20:25.344Z,1.33
2023-04-01T22:23:01.011Z,1.60
2023-04-01T22:25:56.447Z,1.02
2023-04-01T22:28:41.776Z,1.10
2023-04-01T22:31:12.189Z,1.75
2023-04-01T22:33:41.423Z,1.67
2023-04-01T22:36:20.366Z,1.25
2023-04-01T22:38:59.093Z,1.20
2023-04-01T22:41:34.862Z,1.42
2023-04-01T22:44:01.666Z,1.38
2023-04-01T22:46:31.298Z,1.35
2023-04-01T22:49:23.475Z,0.93
2023-04-01T22:52:09.829Z,2.00
2023-04-01T22:55:16.587Z,1.38
2023-04-01T22:57:51.381Z,1.15
2023-04-01T23:00:26.955Z,1.33
2023-04-01T23:03:49.518Z,1.17
2023-04-01T23:06:28.733Z,1.30
2023-04-01T23:09:04.187Z,1.48
2023-04-01T23:11:36.832Z,1.95
2023-04-01T23:14:21.425Z,1.27
2023-04-01T23:17:08.829Z,1.40
2023-04-01T23:19:58.559Z,2.03
2023-04-01T23:22:56.153Z,1.15
2023-04-01T23:26:01.328Z,1.13
2023-04-01T23:28:45.267Z,1.10
2023-04-01T23:31:32.112Z,2.97
2023-04-01T23:34:23.773Z,1.20
2023-04-01T23:37:03.396Z,1.65
2023-04-01T23:39:34.481Z,2.78
2023-04-01T23:42:06.080Z,1.10
2023-04-01T23:44:34.559Z,1.42
2023-04-01T23:47:03.268Z,1.30
2023-04-01T23:49:36.639Z,1.55
2023-04-01T23:52:25.333Z,1.40
2023-04-01T23:55:02.759Z,1.92
2023-04-01T23:57:34.544Z,1.15
